KGG weather

Kédougou Airport
Kédougou, Tambacounda Region, Senegal

Public forecast

Using degrees Celsius for public forecast. Weather courtesy of forecast.io.

Current aviation weather report (METAR) for Kédougou Airport

Report is more than 2 hours old.

Retrieved 2020/04/01 18:00 UTC (5 hours ago):

GOTK 011800Z 12006KT CAVOK 42/09 Q1006

Closest aviation forecast (TAF) to Kédougou Airport

Closest forecast is Osvaldo Vieira International Airport, 205.5 nm (380.6 km) W. Retrieved 2020/04/01 18:33 UTC (4 hours ago):

TAF GGOV 011700Z 0118/0218 22008KT 8000 NSC